Accueil
METAR-TAF:

METAR-TAF

Aéroports :

Caribou, Maine, États-Unis

latitude: 46-52-02N, longitude: 068-00-48W, altitude: 191 m

Observation

Le bulletin a été fait il y a 38 minutes, à 01:54 UTC
Vent 5 kt de nord-ouest
Température -9°C
Humidité 48%
Pression 1038 hPa
Visibilité: 16.1 km
Ciel clair

METAR: KCAR 230154Z AUTO 32005KT 10SM CLR M09/M18 A3064 RMK AO2 SLP393 T10941178

Heure: 21:32 (02:32 UTC)

Prévision

Le bulletin a été fait il y a 2 heures et 59 minutes, à 23:33 UTC
Prévision valable du 23 à 00 UTC au 23 à 24 UTC
Vent kt de nord
Visibilité: 10 km
Ciel clair
A partir de 23 à 2000 UTC
Vent 7 kt de sud
Visibilité: 10 km
Ciel couvert à une hauteur de 7000 ft
neige faible
A partir de 23 à 2200 UTC
Vent 9 kt de sud
Visibilité: 4.8 km
Ciel couvert à une hauteur de 2000 ft
neige faible

TAF: KCAR 222333Z 2300/2324 00000KT P6SM SKC FM232000 17007KT P6SM -SN OVC070 FM232200 17009KT 3SM -SN OVC020

Observations et prévisions météorologiques de plus de 4000 aéroports (messages METAR et TAF).

Les stations disponibles sont représentées par des disques jaunes et rouges sur la carte.

Passer la souris dessus pour voir le nom de la station.

Cliquer dessus pour voir les observations et prévisions météorologiques.

Pour changer de carte: cliquez sur les boutons verts avec une croix noire pour zoomer, sur le bouton vert avec un tiret pour effectuer un zoom arrière, ou sur les flèches vertes pour les cartes adjacentes.


METAR-TAF: